Time;durP1;ratioP1;P1;durP2;ratioP2;P2;SDS_P1;SDS_P2;PMS_P1;PMS_P2;Temp;Humidity;BMP_temperature;BMP_pressure;BME280_temperature;BME280_humidity;BME280_pressure;Samples;Min_cycle;Max_cycle;Signal;HPM_P1;HPM_P2
2023/07/15 00:00:18;;;;;;;9.40;3.95;;;18.90;69.40;;;;;;4829017;29;20138;-96
2023/07/15 00:02:45;;;;;;;7.63;3.97;;;18.90;69.50;;;;;;4829215;29;20046;-96
2023/07/15 00:05:37;;;;;;;7.83;4.50;;;18.80;69.70;;;;;;4829253;29;20098;-95
2023/07/15 00:08:06;;;;;;;8.02;3.67;;;18.80;70.00;;;;;;4828780;29;20049;-95
2023/07/15 00:10:36;;;;;;;7.30;3.88;;;18.80;70.00;;;;;;4829148;29;20390;-96
2023/07/15 00:13:05;;;;;;;8.02;4.18;;;18.80;70.30;;;;;;4829402;29;20050;-96
2023/07/15 00:15:32;;;;;;;7.93;4.30;;;18.80;70.10;;;;;;4829233;29;20527;-96
2023/07/15 00:17:59;;;;;;;9.33;4.47;;;18.80;70.10;;;;;;4829183;29;20057;-96
2023/07/15 00:20:27;;;;;;;7.47;4.18;;;18.70;70.50;;;;;;4828899;29;20081;-96
2023/07/15 00:22:54;;;;;;;9.60;4.20;;;18.80;70.30;;;;;;4828734;29;20053;-95
2023/07/15 00:25:21;;;;;;;8.73;4.03;;;18.80;70.20;;;;;;4828391;29;20462;-95
2023/07/15 00:27:48;;;;;;;8.75;4.55;;;18.70;70.30;;;;;;4828846;29;20053;-95
2023/07/15 00:30:17;;;;;;;10.07;3.77;;;18.80;70.20;;;;;;4828520;29;20054;-96
2023/07/15 00:32:47;;;;;;;8.23;4.00;;;18.70;70.50;;;;;;4828921;29;20054;-96
2023/07/15 00:35:21;;;;;;;10.18;4.00;;;18.60;70.70;;;;;;4828719;29;20046;-95
2023/07/15 00:37:48;;;;;;;8.05;4.18;;;18.60;70.50;;;;;;4828473;29;20116;-96
2023/07/15 00:40:17;;;;;;;8.25;4.05;;;18.60;70.70;;;;;;4828597;29;20113;-95
2023/07/15 00:43:09;;;;;;;8.70;4.47;;;18.50;70.70;;;;;;4828516;29;20053;-96
2023/07/15 00:45:36;;;;;;;10.57;4.00;;;18.50;70.50;;;;;;4843473;29;20046;-96
2023/07/15 00:48:15;;;;;;;9.35;4.28;;;18.60;70.90;;;;;;4828585;29;20053;-95
2023/07/15 00:50:43;;;;;;;10.57;4.25;;;18.50;70.80;;;;;;4828703;29;20057;-95
2023/07/15 00:53:10;;;;;;;7.70;4.40;;;18.50;71.00;;;;;;4828267;29;20144;-94
2023/07/15 00:55:38;;;;;;;10.83;4.20;;;18.50;70.90;;;;;;4828435;29;20080;-95
2023/07/15 00:58:06;;;;;;;8.60;3.85;;;18.30;71.10;;;;;;4827997;29;20073;-96
2023/07/15 01:00:34;;;;;;;7.40;3.53;;;18.40;71.10;;;;;;4828387;29;20528;-95
2023/07/15 01:03:03;;;;;;;8.50;4.28;;;18.40;71.30;;;;;;4828147;29;20046;-96
2023/07/15 01:05:30;;;;;;;10.13;4.43;;;18.40;71.00;;;;;;4828158;29;20057;-95
2023/07/15 01:07:58;;;;;;;7.83;4.10;;;18.40;70.70;;;;;;4828268;29;20056;-96
2023/07/15 01:10:25;;;;;;;8.18;3.95;;;18.40;70.40;;;;;;4828040;29;20144;-95
2023/07/15 01:12:53;;;;;;;8.98;4.30;;;18.40;70.50;;;;;;4828294;29;20049;-94
2023/07/15 01:15:20;;;;;;;7.07;3.80;;;18.40;70.50;;;;;;4827956;29;20072;-95
2023/07/15 01:17:47;;;;;;;9.00;3.72;;;18.40;70.50;;;;;;4829055;29;20406;-96
2023/07/15 01:20:16;;;;;;;7.90;3.80;;;18.30;70.40;;;;;;4828314;29;20454;-95
2023/07/15 01:22:43;;;;;;;8.05;3.83;;;18.40;70.40;;;;;;4827631;29;20083;-95
2023/07/15 01:25:11;;;;;;;8.30;3.88;;;18.40;70.20;;;;;;4828102;29;20058;-95
2023/07/15 01:27:38;;;;;;;7.90;3.75;;;18.30;70.40;;;;;;4827810;29;20080;-95
2023/07/15 01:30:06;;;;;;;8.77;3.95;;;18.30;70.40;;;;;;4827816;29;20077;-95
2023/07/15 01:32:33;;;;;;;9.60;4.37;;;18.30;70.30;;;;;;4828349;29;20054;-95
2023/07/15 01:35:03;;;;;;;8.13;3.88;;;18.30;70.50;;;;;;4828221;29;20511;-96
2023/07/15 01:37:30;;;;;;;7.18;3.80;;;18.30;70.60;;;;;;4828908;29;20513;-96
2023/07/15 01:39:57;;;;;;;8.20;3.97;;;18.20;70.60;;;;;;4831317;29;20050;-96
2023/07/15 01:42:24;;;;;;;8.48;4.45;;;18.20;70.50;;;;;;4831526;29;20071;-95
2023/07/15 01:44:51;;;;;;;8.93;3.70;;;18.20;70.70;;;;;;4831181;29;20524;-95
2023/07/15 01:47:20;;;;;;;8.00;4.00;;;18.10;70.80;;;;;;4831195;29;20056;-95
2023/07/15 01:49:47;;;;;;;10.40;3.88;;;18.10;71.10;;;;;;4831284;29;20042;-95
2023/07/15 01:52:15;;;;;;;8.18;4.30;;;18.10;71.00;;;;;;4831261;29;20058;-95
2023/07/15 01:54:42;;;;;;;9.00;4.20;;;18.10;71.00;;;;;;4831287;29;20058;-95
2023/07/15 01:57:09;;;;;;;7.83;3.47;;;18.10;71.00;;;;;;4832622;29;20054;-95
2023/07/15 01:59:36;;;;;;;7.95;3.65;;;18.10;70.90;;;;;;4834115;29;20087;-95
2023/07/15 02:02:04;;;;;;;10.32;4.30;;;18.10;71.00;;;;;;4833924;29;20052;-95
2023/07/15 02:04:50;;;;;;;9.18;3.97;;;18.10;71.20;;;;;;4852305;29;20049;-95
2023/07/15 02:07:18;;;;;;;8.20;4.07;;;18.00;71.50;;;;;;4834017;29;20530;-95
2023/07/15 02:09:45;;;;;;;7.03;3.93;;;18.00;71.30;;;;;;4834169;29;20500;-96
2023/07/15 02:12:12;;;;;;;7.65;3.92;;;18.00;71.30;;;;;;4833982;29;20054;-96
2023/07/15 02:14:40;;;;;;;10.15;4.05;;;18.00;71.40;;;;;;4833778;29;20053;-95
2023/07/15 02:17:07;;;;;;;8.90;4.30;;;18.00;71.50;;;;;;4833859;29;20082;-95
2023/07/15 02:19:35;;;;;;;7.88;4.00;;;18.00;71.50;;;;;;4833759;29;20057;-96
2023/07/15 02:22:03;;;;;;;9.30;4.27;;;18.00;71.80;;;;;;4833826;29;20051;-95
2023/07/15 02:24:31;;;;;;;6.57;3.40;;;17.90;71.90;;;;;;4833797;29;20492;-96
2023/07/15 02:26:59;;;;;;;7.93;3.83;;;17.90;71.80;;;;;;4833824;29;20050;-95
2023/07/15 02:29:26;;;;;;;7.03;3.67;;;17.80;71.80;;;;;;4833698;29;20045;-95
2023/07/15 02:31:54;;;;;;;9.00;3.78;;;17.80;71.90;;;;;;4833464;29;20057;-95
2023/07/15 02:34:21;;;;;;;7.93;4.23;;;17.80;72.00;;;;;;4833467;29;20071;-95
2023/07/15 02:36:48;;;;;;;7.50;3.90;;;17.80;72.00;;;;;;4833496;29;20053;-95
2023/07/15 02:39:16;;;;;;;6.85;3.80;;;17.90;71.90;;;;;;4833367;29;20045;-95
2023/07/15 02:41:44;;;;;;;8.93;4.10;;;17.80;72.20;;;;;;4833251;29;20096;-95
2023/07/15 02:44:12;;;;;;;9.02;3.88;;;17.80;72.00;;;;;;4833316;29;20105;-95
2023/07/15 02:46:39;;;;;;;7.37;3.83;;;17.90;71.80;;;;;;4833410;29;20050;-95
2023/07/15 02:49:08;;;;;;;9.35;4.70;;;17.90;71.80;;;;;;4832895;29;20550;-95
2023/07/15 02:51:36;;;;;;;8.15;3.78;;;17.90;71.70;;;;;;4833441;29;20050;-95
2023/07/15 02:54:03;;;;;;;7.55;4.05;;;17.90;72.10;;;;;;4833176;29;20053;-95
2023/07/15 02:56:31;;;;;;;7.30;3.85;;;18.00;71.70;;;;;;4848079;29;20144;-96
2023/07/15 02:58:58;;;;;;;6.73;3.73;;;17.90;71.80;;;;;;4833012;29;20057;-96
2023/07/15 03:01:25;;;;;;;10.32;4.53;;;17.90;71.70;;;;;;4832681;29;20140;-95
2023/07/15 03:03:55;;;;;;;7.88;3.58;;;17.90;71.70;;;;;;4833443;29;20141;-95
2023/07/15 03:06:22;;;;;;;8.55;4.35;;;17.80;72.20;;;;;;4832975;29;20053;-96
2023/07/15 03:08:49;;;;;;;7.20;3.97;;;17.70;72.40;;;;;;4832885;29;20045;-95
2023/07/15 03:11:16;;;;;;;7.33;4.10;;;17.60;72.50;;;;;;4833086;29;20050;-95
2023/07/15 03:13:44;;;;;;;8.95;4.38;;;17.60;72.70;;;;;;4832917;29;20053;-95
2023/07/15 03:16:12;;;;;;;9.93;4.60;;;17.60;72.80;;;;;;4833012;29;20061;-95
2023/07/15 03:18:40;;;;;;;10.40;4.07;;;17.60;72.70;;;;;;4833119;29;20113;-95
2023/07/15 03:21:07;;;;;;;8.60;4.35;;;17.70;72.60;;;;;;4832768;29;20141;-95
2023/07/15 03:23:34;;;;;;;8.87;3.57;;;17.70;72.70;;;;;;4833344;29;20576;-95
2023/07/15 03:26:03;;;;;;;7.95;3.97;;;17.60;72.70;;;;;;4832802;29;20041;-95
2023/07/15 03:28:30;;;;;;;8.18;4.13;;;17.60;72.90;;;;;;4832589;29;20076;-95
2023/07/15 03:30:57;;;;;;;11.60;4.28;;;17.60;72.80;;;;;;4832662;29;20050;-96
2023/07/15 03:33:24;;;;;;;8.07;4.00;;;17.70;72.70;;;;;;4832499;29;20059;-95
2023/07/15 03:35:52;;;;;;;7.97;3.60;;;17.60;72.60;;;;;;4832837;29;20092;-96
2023/07/15 03:38:20;;;;;;;8.30;3.95;;;17.70;72.50;;;;;;4832499;29;20049;-95
2023/07/15 03:40:49;;;;;;;8.10;3.78;;;17.70;72.70;;;;;;4832604;29;20389;-95
2023/07/15 03:43:17;;;;;;;8.07;3.95;;;17.70;72.70;;;;;;4832285;29;20592;-95
2023/07/15 03:45:44;;;;;;;8.70;4.05;;;17.80;72.30;;;;;;4832300;29;20046;-95
2023/07/15 03:48:11;;;;;;;12.07;3.87;;;17.80;72.30;;;;;;4832342;29;20097;-95
2023/07/15 03:50:38;;;;;;;10.55;4.32;;;17.80;72.20;;;;;;4832077;29;20083;-95
2023/07/15 03:53:05;;;;;;;9.02;4.35;;;17.80;72.30;;;;;;4832530;29;20045;-95
2023/07/15 03:55:33;;;;;;;8.90;4.20;;;17.90;72.30;;;;;;4832059;29;20053;-95
2023/07/15 03:58:00;;;;;;;8.73;3.83;;;17.90;72.30;;;;;;4831925;29;20076;-95
2023/07/15 04:00:27;;;;;;;9.37;3.90;;;17.90;72.00;;;;;;4831990;29;20042;-96
2023/07/15 04:02:55;;;;;;;9.57;4.05;;;18.00;71.70;;;;;;4832136;29;20500;-95
2023/07/15 04:05:22;;;;;;;10.10;3.70;;;18.00;71.80;;;;;;4832385;29;20052;-95
2023/07/15 04:07:49;;;;;;;8.90;3.67;;;18.10;71.60;;;;;;4832073;29;20048;-96
2023/07/15 04:10:16;;;;;;;6.72;3.28;;;18.00;71.60;;;;;;4831838;29;20049;-95
2023/07/15 04:12:43;;;;;;;7.70;3.60;;;18.10;71.80;;;;;;4832096;29;20504;-96
2023/07/15 04:15:10;;;;;;;8.40;3.85;;;18.10;71.50;;;;;;4831829;29;20458;-96
2023/07/15 04:17:38;;;;;;;10.20;4.50;;;18.10;71.60;;;;;;4831779;29;20049;-96
2023/07/15 04:20:11;;;;;;;7.90;4.22;;;18.20;71.70;;;;;;4831746;29;20057;-95
2023/07/15 04:22:39;;;;;;;9.55;4.47;;;18.20;71.60;;;;;;4831898;29;20070;-95
2023/07/15 04:25:07;;;;;;;11.53;4.30;;;18.30;71.80;;;;;;4831744;29;20046;-95
2023/07/15 04:27:34;;;;;;;7.35;3.88;;;18.40;71.00;;;;;;4831872;29;20050;-95
2023/07/15 04:30:03;;;;;;;8.73;4.47;;;18.50;71.30;;;;;;4831745;29;20053;-95
2023/07/15 04:32:30;;;;;;;7.80;3.58;;;18.50;71.20;;;;;;4831724;29;20061;-95
2023/07/15 04:34:57;;;;;;;8.45;3.40;;;18.50;71.00;;;;;;4831414;29;20073;-95
2023/07/15 04:37:25;;;;;;;13.03;3.77;;;18.60;70.70;;;;;;4831988;29;20057;-96
2023/07/15 04:39:52;;;;;;;8.85;3.22;;;18.70;70.70;;;;;;4831791;29;20057;-95
2023/07/15 04:42:19;;;;;;;7.65;3.42;;;18.80;70.30;;;;;;4831658;29;20099;-95
2023/07/15 04:44:46;;;;;;;7.88;3.20;;;18.90;70.40;;;;;;4831721;29;20144;-96
2023/07/15 04:47:14;;;;;;;6.47;3.42;;;19.10;70.20;;;;;;4831513;29;20105;-95
2023/07/15 04:49:41;;;;;;;7.83;3.47;;;19.20;69.80;;;;;;4831762;29;20056;-95
2023/07/15 04:52:08;;;;;;;7.15;3.38;;;19.30;69.10;;;;;;4831445;29;20057;-96
2023/07/15 04:54:35;;;;;;;8.48;3.60;;;19.50;68.80;;;;;;4831570;29;20141;-95
2023/07/15 04:57:03;;;;;;;11.65;4.05;;;19.60;68.70;;;;;;4831235;29;20097;-95
2023/07/15 04:59:30;;;;;;;6.82;3.88;;;19.80;67.80;;;;;;4831532;29;20053;-94
2023/07/15 05:01:57;;;;;;;7.63;4.00;;;20.00;67.90;;;;;;4831831;29;20073;-95
2023/07/15 05:04:24;;;;;;;7.25;3.60;;;20.10;67.70;;;;;;4831360;29;20080;-96
2023/07/15 05:06:51;;;;;;;8.13;3.45;;;20.20;67.30;;;;;;4831137;29;20054;-95
2023/07/15 05:09:18;;;;;;;8.40;3.78;;;20.30;66.80;;;;;;4831258;29;20045;-95
2023/07/15 05:11:47;;;;;;;7.72;3.15;;;20.40;66.40;;;;;;4832922;29;20053;-95
2023/07/15 05:14:14;;;;;;;7.10;3.60;;;20.40;66.40;;;;;;4835003;29;20094;-95
2023/07/15 05:16:43;;;;;;;7.75;3.33;;;20.50;66.70;;;;;;4835021;29;20054;-95
2023/07/15 05:19:11;;;;;;;7.20;3.70;;;20.60;66.20;;;;;;4834871;29;20049;-95
2023/07/15 05:21:38;;;;;;;10.05;3.38;;;20.70;66.40;;;;;;4834571;29;20045;-95
2023/07/15 05:24:06;;;;;;;8.98;3.50;;;20.80;66.00;;;;;;4834637;29;20144;-95
2023/07/15 05:26:34;;;;;;;6.77;3.20;;;21.00;66.30;;;;;;4835129;29;20125;-96
2023/07/15 05:29:01;;;;;;;6.30;3.13;;;21.10;65.90;;;;;;4834726;29;20053;-95
2023/07/15 05:31:28;;;;;;;5.70;3.08;;;21.30;65.50;;;;;;4835185;29;20049;-95
2023/07/15 05:33:55;;;;;;;6.03;3.00;;;21.40;65.00;;;;;;4834967;29;20088;-96
2023/07/15 05:36:22;;;;;;;7.72;3.10;;;21.50;65.20;;;;;;4834585;29;20069;-96
2023/07/15 05:38:49;;;;;;;6.17;3.07;;;21.70;65.00;;;;;;4834746;29;20148;-96
2023/07/15 05:41:16;;;;;;;12.43;3.55;;;21.80;64.30;;;;;;4834871;29;20053;-96
2023/07/15 05:43:44;;;;;;;6.53;3.10;;;21.90;64.80;;;;;;4835005;29;20496;-96
2023/07/15 05:46:11;;;;;;;7.53;3.25;;;22.10;64.50;;;;;;4835197;29;20084;-96
2023/07/15 05:48:38;;;;;;;6.88;3.30;;;22.20;64.00;;;;;;4834870;29;20416;-96
2023/07/15 05:51:06;;;;;;;10.67;3.00;;;22.40;63.50;;;;;;4850707;29;20045;-95
2023/07/15 05:53:33;;;;;;;6.60;2.80;;;22.50;64.30;;;;;;4834932;29;20057;-96
2023/07/15 05:56:00;;;;;;;6.85;2.92;;;22.60;63.40;;;;;;4834305;29;20141;-95
2023/07/15 05:58:27;;;;;;;7.95;2.63;;;22.80;62.90;;;;;;4834836;29;20114;-96
2023/07/15 06:00:54;;;;;;;7.18;3.20;;;22.90;63.00;;;;;;4834656;29;20081;-96
2023/07/15 06:03:22;;;;;;;5.73;3.20;;;23.00;62.90;;;;;;4834111;29;20144;-96
2023/07/15 06:05:49;;;;;;;9.80;3.28;;;23.10;62.30;;;;;;4834212;29;20109;-96
2023/07/15 06:08:16;;;;;;;6.97;3.05;;;23.20;62.70;;;;;;4833950;29;20053;-92
2023/07/15 06:10:44;;;;;;;6.15;2.65;;;23.30;62.70;;;;;;4833493;29;20072;-92
2023/07/15 06:13:11;;;;;;;7.30;2.90;;;23.40;62.10;;;;;;4833937;29;20106;-92
2023/07/15 06:15:38;;;;;;;7.63;2.60;;;23.50;62.60;;;;;;4834007;29;20136;-92
2023/07/15 06:18:09;;;;;;;8.90;3.10;;;23.60;62.80;;;;;;4834177;29;20053;-93
2023/07/15 06:20:46;;;;;;;6.00;2.70;;;23.70;61.30;;;;;;4833584;29;20404;-92
2023/07/15 06:23:14;;;;;;;5.97;2.67;;;23.80;62.50;;;;;;4832987;29;20099;-92
2023/07/15 06:25:41;;;;;;;5.72;2.80;;;24.00;61.20;;;;;;4833360;29;20041;-92
2023/07/15 06:28:08;;;;;;;7.50;2.80;;;24.00;61.00;;;;;;4836199;29;20412;-94
2023/07/15 06:30:35;;;;;;;7.22;2.65;;;24.10;60.90;;;;;;4833700;29;20084;-95
2023/07/15 06:33:03;;;;;;;5.57;2.90;;;24.20;60.40;;;;;;4833616;29;20496;-95
2023/07/15 06:35:34;;;;;;;5.63;2.72;;;24.30;60.50;;;;;;4834224;29;20057;-96
2023/07/15 06:38:01;;;;;;;6.97;2.88;;;24.40;60.70;;;;;;4837105;29;20504;-96
2023/07/15 06:40:28;;;;;;;9.40;3.40;;;24.50;59.50;;;;;;4834458;29;20060;-95
2023/07/15 06:42:55;;;;;;;9.63;2.90;;;24.60;59.30;;;;;;4833411;29;20045;-95
2023/07/15 06:45:32;;;;;;;7.25;3.00;;;24.60;60.10;;;;;;4834314;29;20045;-95
2023/07/15 06:47:59;;;;;;;6.55;3.00;;;24.70;59.50;;;;;;4833422;29;20054;-95
2023/07/15 06:50:28;;;;;;;9.38;3.33;;;24.80;60.10;;;;;;4833477;29;20049;-94
2023/07/15 06:52:55;;;;;;;8.17;3.23;;;25.00;60.00;;;;;;4833315;29;20451;-96
2023/07/15 06:55:22;;;;;;;8.00;2.83;;;25.10;59.80;;;;;;4833258;29;20053;-96
2023/07/15 06:57:49;;;;;;;10.18;3.22;;;25.30;59.80;;;;;;4833143;29;20092;-96
2023/07/15 07:00:16;;;;;;;7.55;3.03;;;25.50;60.00;;;;;;4833186;29;20053;-95
2023/07/15 07:02:43;;;;;;;8.60;3.05;;;25.60;58.10;;;;;;4833416;29;20424;-95
2023/07/15 07:05:11;;;;;;;6.63;2.80;;;25.60;57.80;;;;;;4833342;29;20066;-95
2023/07/15 07:07:39;;;;;;;7.70;3.15;;;25.60;57.90;;;;;;4833380;29;21105;-95
2023/07/15 07:10:07;;;;;;;6.82;2.47;;;25.60;58.00;;;;;;4833223;29;20098;-95
2023/07/15 07:12:34;;;;;;;6.15;2.40;;;25.70;57.70;;;;;;4833240;29;20095;-94
2023/07/15 07:15:10;;;;;;;8.23;3.10;;;25.80;58.60;;;;;;4833133;29;20055;-95
2023/07/15 07:17:39;;;;;;;6.67;3.30;;;26.00;57.90;;;;;;4840495;29;20057;-96
2023/07/15 07:20:09;;;;;;;5.57;2.15;;;26.10;59.20;;;;;;4843807;29;20076;-96
2023/07/15 07:22:46;;;;;;;7.07;2.72;;;26.20;57.50;;;;;;4844764;29;20049;-96
2023/07/15 07:25:18;;;;;;;6.72;2.72;;;26.20;57.20;;;;;;4844438;29;20041;-96
2023/07/15 07:27:50;;;;;;;9.13;2.90;;;26.20;57.20;;;;;;4862424;29;20085;-96
2023/07/15 07:34:21;;;;;;;5.15;2.70;;;26.30;58.90;;;;;;4873347;29;20062;-96
2023/07/15 07:36:53;;;;;;;5.88;2.60;;;26.60;57.10;;;;;;4840550;29;20045;-96
2023/07/15 07:39:34;;;;;;;5.80;2.60;;;26.60;56.40;;;;;;4864207;29;20061;-96
2023/07/15 07:42:16;;;;;;;8.27;2.70;;;26.70;58.90;;;;;;4865456;29;20083;-96
2023/07/15 07:44:48;;;;;;;7.93;2.73;;;26.90;58.10;;;;;;4851179;29;20045;-96
2023/07/15 07:47:50;;;;;;;7.97;2.35;;;27.10;57.90;;;;;;4852189;29;20033;-96
2023/07/15 07:50:29;;;;;;;5.65;2.58;;;27.20;54.30;;;;;;4864708;29;20041;-96
2023/07/15 07:57:40;;;;;;;7.43;2.45;;;27.20;54.00;;;;;;4881234;29;20063;-96
2023/07/15 08:05:04;;;;;;;7.55;2.40;;;27.60;54.00;;;;;;4878034;29;20052;-96
2023/07/15 08:08:17;;;;;;;7.13;2.35;;;27.70;53.40;;;;;;4819528;29;20064;-96
2023/07/15 08:10:49;;;;;;;7.65;2.97;;;27.80;52.80;;;;;;4850781;29;20069;-96
2023/07/15 08:18:03;;;;;;;12.87;2.73;;;28.00;53.80;;;;;;4869752;29;20040;-96
2023/07/15 08:20:31;;;;;;;7.50;2.60;;;28.10;51.90;;;;;;4833103;29;20043;-93
2023/07/15 08:22:59;;;;;;;6.32;2.60;;;28.20;51.90;;;;;;4831316;29;20053;-93
2023/07/15 08:25:27;;;;;;;6.28;2.20;;;28.40;52.60;;;;;;4831379;29;20088;-94
2023/07/15 08:27:54;;;;;;;7.65;2.47;;;28.60;51.40;;;;;;4831531;29;20137;-94
2023/07/15 08:30:22;;;;;;;6.37;2.33;;;28.60;52.20;;;;;;4831518;29;20101;-94
2023/07/15 08:32:49;;;;;;;8.57;2.40;;;28.70;51.20;;;;;;4831425;29;20077;-93
2023/07/15 08:35:17;;;;;;;5.97;2.13;;;28.80;52.20;;;;;;4831397;29;20100;-94
2023/07/15 08:37:44;;;;;;;6.75;2.70;;;29.00;51.20;;;;;;4831303;29;20070;-94
2023/07/15 08:40:11;;;;;;;6.55;1.80;;;29.00;49.50;;;;;;4831385;29;20417;-94
2023/07/15 08:42:39;;;;;;;6.10;2.00;;;29.10;48.30;;;;;;4831459;29;20572;-94
2023/07/15 08:45:07;;;;;;;7.53;2.53;;;29.10;48.70;;;;;;4831636;29;20530;-94
2023/07/15 08:47:35;;;;;;;7.93;2.00;;;29.20;50.10;;;;;;4832311;29;20053;-92
2023/07/15 08:50:05;;;;;;;5.82;1.88;;;29.20;49.00;;;;;;4831540;29;20050;-93
2023/07/15 08:52:35;;;;;;;4.88;1.85;;;29.20;49.00;;;;;;4831371;29;20053;-91
2023/07/15 08:58:54;;;;;;;5.28;1.75;;;29.20;48.50;;;;;;5502831;23;20037;31
2023/07/15 09:02:10;;;;;;;4.57;1.80;;;29.30;48.10;;;;;;4965306;24;19967;-92
2023/07/15 09:04:38;;;;;;;4.70;1.75;;;29.40;47.40;;;;;;4814112;29;20092;-93
2023/07/15 09:07:06;;;;;;;6.60;2.30;;;29.40;46.30;;;;;;4812961;29;20054;-94
2023/07/15 09:09:33;;;;;;;7.90;2.00;;;29.50;47.70;;;;;;4812704;29;20063;-94
2023/07/15 09:12:03;;;;;;;7.13;2.03;;;29.60;49.90;;;;;;4812819;29;20078;-94
2023/07/15 09:14:31;;;;;;;7.68;2.13;;;29.50;47.40;;;;;;4812893;29;20081;-94
2023/07/15 09:16:59;;;;;;;7.50;2.55;;;29.60;49.60;;;;;;4812644;29;20061;-94
2023/07/15 09:19:28;;;;;;;7.22;2.22;;;29.50;48.70;;;;;;4812750;29;20136;-94
2023/07/15 09:22:07;;;;;;;7.00;2.00;;;29.50;49.20;;;;;;4812560;29;20038;-95
2023/07/15 09:24:37;;;;;;;6.68;1.70;;;29.50;47.30;;;;;;4812730;29;20050;-94
2023/07/15 09:27:04;;;;;;;8.88;2.20;;;29.60;48.10;;;;;;4812617;29;20050;-94
2023/07/15 09:29:33;;;;;;;8.43;2.25;;;29.60;48.10;;;;;;4812686;29;20050;-94
2023/07/15 09:32:00;;;;;;;4.85;2.00;;;29.70;48.10;;;;;;4812532;29;20087;-94
2023/07/15 09:34:27;;;;;;;6.60;1.97;;;29.70;46.00;;;;;;4812631;29;20061;-94
2023/07/15 09:36:54;;;;;;;6.78;2.00;;;29.90;46.40;;;;;;4812549;29;20145;-94
2023/07/15 09:39:23;;;;;;;7.05;2.40;;;30.00;45.40;;;;;;4812791;29;20515;-94
2023/07/15 09:42:04;;;;;;;6.25;1.98;;;29.90;45.10;;;;;;4812724;29;20536;-94
2023/07/15 09:44:39;;;;;;;6.82;2.20;;;30.00;43.90;;;;;;4812518;29;20060;-94
2023/07/15 09:47:07;;;;;;;7.90;2.33;;;30.00;48.40;;;;;;4812567;29;20061;-94
2023/07/15 09:49:35;;;;;;;8.30;2.50;;;30.10;48.20;;;;;;4812447;29;20049;-94
2023/07/15 09:52:05;;;;;;;6.53;2.00;;;30.10;47.50;;;;;;4812752;29;20153;-94
2023/07/15 09:54:34;;;;;;;16.90;2.90;;;30.10;46.90;;;;;;4812562;29;20049;-94
2023/07/15 09:57:06;;;;;;;7.65;2.40;;;30.10;48.20;;;;;;4812549;29;20524;-94
2023/07/15 09:59:54;;;;;;;5.57;2.23;;;30.10;47.40;;;;;;4829398;29;20058;-94
2023/07/15 10:02:35;;;;;;;6.07;2.15;;;30.10;49.30;;;;;;4830075;29;20050;-94
2023/07/15 10:05:04;;;;;;;9.02;3.00;;;30.30;47.80;;;;;;4815856;29;20140;-94
2023/07/15 10:07:32;;;;;;;8.65;3.22;;;30.30;49.30;;;;;;4815350;29;20050;-94
2023/07/15 10:10:00;;;;;;;7.10;2.30;;;30.20;46.40;;;;;;4815510;29;20118;-94
2023/07/15 10:12:28;;;;;;;8.83;3.40;;;30.20;46.90;;;;;;4815270;29;20049;-95
2023/07/15 10:14:56;;;;;;;7.00;2.58;;;30.10;46.00;;;;;;4815148;29;20050;-95
2023/07/15 10:17:23;;;;;;;6.53;2.40;;;30.10;47.70;;;;;;4815210;29;20081;-94
2023/07/15 10:19:52;;;;;;;6.80;2.28;;;30.20;47.70;;;;;;4815113;29;20152;-94
2023/07/15 10:22:23;;;;;;;7.78;2.35;;;30.40;48.90;;;;;;4815208;29;20061;-94
2023/07/15 10:24:55;;;;;;;7.37;2.77;;;30.50;46.90;;;;;;4815148;29;20054;-94
2023/07/15 10:27:27;;;;;;;5.78;2.33;;;30.60;46.30;;;;;;4815067;29;20133;-94
2023/07/15 10:30:13;;;;;;;8.05;3.08;;;30.70;46.60;;;;;;4815141;29;20144;-95
2023/07/15 10:33:00;;;;;;;7.95;2.88;;;30.90;45.60;;;;;;4814842;29;20573;-94
2023/07/15 10:35:29;;;;;;;8.25;2.40;;;30.80;45.20;;;;;;4829627;29;20046;-95
2023/07/15 10:38:01;;;;;;;10.70;2.57;;;30.80;46.10;;;;;;4814823;29;20065;-94
2023/07/15 10:40:56;;;;;;;7.63;2.65;;;30.90;46.20;;;;;;4814889;29;20061;-94
2023/07/15 10:43:35;;;;;;;7.65;2.42;;;30.90;46.50;;;;;;4812453;29;20054;-94
2023/07/15 10:46:13;;;;;;;9.35;3.10;;;31.00;46.00;;;;;;4829590;29;20061;-94
2023/07/15 10:48:41;;;;;;;6.65;2.65;;;31.00;45.40;;;;;;4814661;29;20081;-94
2023/07/15 10:51:09;;;;;;;8.80;2.27;;;31.20;45.90;;;;;;4814985;29;20046;-95
2023/07/15 10:53:37;;;;;;;6.57;2.10;;;31.20;43.50;;;;;;4815179;29;20110;-94
2023/07/15 10:56:05;;;;;;;6.35;1.83;;;31.10;44.70;;;;;;4814291;29;20180;-94
2023/07/15 10:58:35;;;;;;;4.28;2.00;;;31.10;42.90;;;;;;4814450;29;20058;-95
2023/07/15 11:01:07;;;;;;;5.07;1.90;;;31.10;44.40;;;;;;4814287;29;20049;-94
2023/07/15 11:03:44;;;;;;;6.00;2.10;;;31.30;45.30;;;;;;4825472;29;20069;-94
2023/07/15 11:06:12;;;;;;;4.53;2.03;;;31.40;42.40;;;;;;4832640;29;20049;-94
2023/07/15 11:08:41;;;;;;;4.60;1.98;;;31.50;42.20;;;;;;4832693;29;20531;-94
2023/07/15 11:11:12;;;;;;;6.95;2.08;;;31.50;44.20;;;;;;4832316;29;20148;-94
2023/07/15 11:17:49;;;;;;;6.77;2.10;;;31.50;42.60;;;;;;4840134;29;20091;-94
2023/07/15 11:20:16;;;;;;;9.25;2.55;;;31.70;44.00;;;;;;4832707;29;20053;-94
2023/07/15 11:23:04;;;;;;;6.18;2.22;;;31.80;41.50;;;;;;4832036;29;20046;-94
2023/07/15 11:25:59;;;;;;;5.97;2.00;;;31.90;43.90;;;;;;4833361;29;20062;-94
2023/07/15 11:29:13;;;;;;;4.70;1.90;;;32.10;43.10;;;;;;4849624;29;20053;-95
2023/07/15 11:32:20;;;;;;;6.37;2.27;;;32.30;41.50;;;;;;4832640;29;20045;-95
2023/07/15 11:35:35;;;;;;;5.97;2.13;;;32.20;43.30;;;;;;4828276;29;20528;-94
2023/07/15 11:38:41;;;;;;;5.85;2.22;;;32.20;40.60;;;;;;4847834;29;20449;-94
2023/07/15 11:51:48;;;;;;;7.70;2.30;;;32.10;41.40;;;;;;4807381;29;20137;-95
2023/07/15 12:00:49;;;;;;;5.00;2.00;;;32.40;41.40;;;;;;4824410;29;20030;-94
2023/07/15 12:03:18;;;;;;;6.38;2.17;;;32.40;40.40;;;;;;4809255;29;20506;-95
2023/07/15 12:13:13;;;;;;;5.38;1.92;;;32.60;41.30;;;;;;4820621;29;20050;-94
2023/07/15 12:15:47;;;;;;;4.78;2.00;;;32.70;42.00;;;;;;4813933;29;20050;-94
2023/07/15 12:18:15;;;;;;;6.60;2.08;;;32.90;41.90;;;;;;4828137;29;20474;-94
2023/07/15 12:20:42;;;;;;;6.13;2.03;;;32.90;41.10;;;;;;4812974;29;20576;-94
2023/07/15 12:23:09;;;;;;;5.10;2.23;;;32.90;42.90;;;;;;4827718;29;20580;-95
2023/07/15 12:25:39;;;;;;;5.10;1.92;;;33.10;40.40;;;;;;4813037;29;20050;-95
2023/07/15 12:28:09;;;;;;;7.47;2.50;;;33.10;41.30;;;;;;4813001;29;20111;-94
2023/07/15 12:30:36;;;;;;;6.32;2.10;;;33.20;40.10;;;;;;4827692;29;20075;-95
2023/07/15 12:33:04;;;;;;;5.35;2.20;;;33.40;39.20;;;;;;4813006;29;20572;-94
2023/07/15 12:35:31;;;;;;;6.47;2.37;;;33.50;40.20;;;;;;4812954;29;20058;-95
2023/07/15 12:37:58;;;;;;;5.43;2.25;;;33.60;37.90;;;;;;4813274;29;20089;-94
2023/07/15 12:40:25;;;;;;;7.28;2.40;;;33.60;40.00;;;;;;4813374;29;20539;-95
2023/07/15 12:42:53;;;;;;;6.50;2.28;;;33.50;40.10;;;;;;4812610;29;20046;-94
2023/07/15 12:45:20;;;;;;;9.48;2.83;;;33.50;39.60;;;;;;4812915;29;20138;-95
2023/07/15 12:47:51;;;;;;;6.70;2.50;;;33.50;39.60;;;;;;4813471;29;20064;-95
2023/07/15 12:50:19;;;;;;;4.93;2.13;;;33.40;38.90;;;;;;4813136;29;20053;-95
2023/07/15 12:52:49;;;;;;;7.80;2.63;;;33.40;40.20;;;;;;4812888;29;20056;-95
2023/07/15 12:56:00;;;;;;;6.38;2.33;;;33.40;41.90;;;;;;4826382;29;20050;-95
2023/07/15 12:58:27;;;;;;;5.28;2.00;;;33.40;39.20;;;;;;4812673;29;20042;-94
2023/07/15 13:00:56;;;;;;;7.37;2.50;;;33.40;38.40;;;;;;4812599;29;20054;-94
2023/07/15 13:03:23;;;;;;;5.72;2.00;;;33.30;39.00;;;;;;4812349;29;20081;-95
2023/07/15 13:05:51;;;;;;;5.35;2.00;;;33.10;39.10;;;;;;4812680;29;20050;-94
2023/07/15 13:08:18;;;;;;;4.97;1.80;;;33.00;39.40;;;;;;4812536;29;20053;-94
2023/07/15 13:10:45;;;;;;;5.07;2.10;;;33.20;39.70;;;;;;4812387;29;20049;-94
2023/07/15 13:13:12;;;;;;;5.23;2.00;;;33.40;39.50;;;;;;4812469;29;20078;-95
2023/07/15 13:15:46;;;;;;;5.03;2.10;;;33.60;40.70;;;;;;4812536;29;20046;-94
2023/07/15 13:18:13;;;;;;;4.57;1.95;;;33.60;37.60;;;;;;4827546;29;20468;-93
2023/07/15 13:20:41;;;;;;;5.65;2.42;;;33.60;37.00;;;;;;4812461;29;20046;-93
2023/07/15 13:23:08;;;;;;;13.18;2.67;;;33.60;39.50;;;;;;4812363;29;20072;-95
2023/07/15 13:25:36;;;;;;;5.13;1.90;;;33.60;40.00;;;;;;4812649;29;20053;-93
2023/07/15 13:28:04;;;;;;;5.38;2.40;;;33.60;40.90;;;;;;4812791;29;20050;-93
2023/07/15 13:30:31;;;;;;;5.63;2.42;;;33.60;40.00;;;;;;4812757;29;20140;-93
2023/07/15 13:32:58;;;;;;;6.50;2.38;;;33.50;39.90;;;;;;4812670;29;20046;-93
2023/07/15 13:35:26;;;;;;;6.53;2.13;;;33.30;39.70;;;;;;4816292;29;20054;-94
2023/07/15 13:37:53;;;;;;;5.10;1.90;;;33.40;40.00;;;;;;4816107;29;20145;-93
2023/07/15 13:40:20;;;;;;;5.13;2.20;;;33.40;35.10;;;;;;4815942;29;20085;-93
2023/07/15 13:42:50;;;;;;;4.82;2.40;;;33.60;37.60;;;;;;4815701;29;20122;-93
2023/07/15 13:45:18;;;;;;;4.65;2.08;;;33.70;38.10;;;;;;4815790;29;20050;-93
2023/07/15 13:47:51;;;;;;;5.43;2.05;;;33.80;37.20;;;;;;4816041;29;20057;-93
2023/07/15 13:50:18;;;;;;;5.53;2.40;;;33.80;36.10;;;;;;4815910;29;20513;-93